Terminal Aerodrome Forecast
Issued by NWS

Home | Current Version | Previous Version | Text Only | Print | Product List | Glossary On
Versions: 1 2 3 4 5 6 7 8 9 10 11 12 13 14 15 16 17 18 19 20 21 22 23 24
377
FTUS44 KFWD 092335
TAFDAL
TAF
KDAL 092335Z 1000/1024 01010KT P6SM FEW200
     FM100900 15004KT P6SM SKC
     FM101700 19014KT P6SM SKC=

USA.gov is the U.S. government's official web portal to all federal, state and local government web resources and services.